createdAt,value
2022-09-06T00:00:42.120Z,26.04
2022-09-06T00:03:12.395Z,25.96
2022-09-06T00:05:45.312Z,25.72
2022-09-06T00:08:16.055Z,25.73
2022-09-06T00:10:49.507Z,25.91
2022-09-06T00:13:22.372Z,25.94
2022-09-06T00:15:52.333Z,25.84
2022-09-06T00:18:21.057Z,25.79
2022-09-06T00:20:52.081Z,25.77
2022-09-06T00:23:24.907Z,25.89
2022-09-06T00:26:10.649Z,25.60
2022-09-06T00:28:43.629Z,25.56
2022-09-06T00:31:15.821Z,25.74
2022-09-06T00:33:46.057Z,25.79
2022-09-06T00:36:16.414Z,25.96
2022-09-06T00:38:51.263Z,25.81
2022-09-06T00:41:21.537Z,25.85
2022-09-06T00:43:51.778Z,25.92
2022-09-06T00:46:24.023Z,25.75
2022-09-06T00:48:54.872Z,25.75
2022-09-06T00:51:23.277Z,25.60
2022-09-06T00:53:57.023Z,25.73
2022-09-06T00:56:28.112Z,25.76
2022-09-06T00:59:04.172Z,25.46
2022-09-06T01:01:35.350Z,25.54
2022-09-06T01:04:27.803Z,25.65
2022-09-06T01:07:04.642Z,25.77
2022-09-06T01:09:43.212Z,25.77
2022-09-06T01:12:19.123Z,25.77
2022-09-06T01:14:52.591Z,25.81
2022-09-06T01:17:26.520Z,25.89
2022-09-06T01:20:09.861Z,25.36
2022-09-06T01:22:56.105Z,25.24
2022-09-06T01:25:44.298Z,25.14
2022-09-06T01:28:24.335Z,24.87
2022-09-06T01:31:01.338Z,25.13
2022-09-06T01:33:38.539Z,25.26
2022-09-06T01:36:13.022Z,25.26
2022-09-06T01:38:41.059Z,25.37
2022-09-06T01:41:17.416Z,25.49
2022-09-06T01:43:46.335Z,25.51
2022-09-06T01:46:19.976Z,25.56
2022-09-06T01:49:08.478Z,25.41
2022-09-06T01:51:54.641Z,25.28
2022-09-06T01:54:41.591Z,25.34
2022-09-06T01:57:21.393Z,25.34
2022-09-06T02:00:09.222Z,25.15
2022-09-06T02:03:01.347Z,25.17
2022-09-06T02:05:34.772Z,25.33
2022-09-06T02:08:07.947Z,25.38
2022-09-06T02:10:48.645Z,25.33
2022-09-06T02:13:19.187Z,25.30
2022-09-06T02:15:48.032Z,25.14
2022-09-06T02:18:38.935Z,24.92
2022-09-06T02:21:10.405Z,25.11
2022-09-06T02:23:41.142Z,25.29
2022-09-06T02:26:13.845Z,25.43
2022-09-06T02:28:46.758Z,25.37
2022-09-06T02:31:23.695Z,25.35
2022-09-06T02:33:54.259Z,25.20
2022-09-06T02:36:27.707Z,25.01
2022-09-06T02:38:59.067Z,25.07
2022-09-06T02:41:32.264Z,24.87
2022-09-06T02:44:03.161Z,24.89
2022-09-06T02:46:36.598Z,25.13
2022-09-06T02:49:06.860Z,25.24
2022-09-06T02:51:40.963Z,25.29
2022-09-06T02:54:10.806Z,25.21
2022-09-06T02:56:43.769Z,25.17
2022-09-06T02:59:13.716Z,25.24
2022-09-06T03:01:44.667Z,25.12
2022-09-06T03:04:11.948Z,24.93
2022-09-06T03:06:39.596Z,25.02
2022-09-06T03:09:11.062Z,24.89
2022-09-06T03:11:38.795Z,24.99
2022-09-06T03:14:11.450Z,25.11
2022-09-06T03:16:46.228Z,24.98
2022-09-06T03:19:16.575Z,24.79
2022-09-06T03:21:46.682Z,24.86
2022-09-06T03:24:22.296Z,25.00
2022-09-06T03:26:52.510Z,25.03
2022-09-06T03:29:23.310Z,24.94
2022-09-06T03:31:53.320Z,25.04
2022-09-06T03:34:21.308Z,25.11
2022-09-06T03:36:54.483Z,25.15
2022-09-06T03:39:24.938Z,25.09
2022-09-06T03:41:57.477Z,25.11
2022-09-06T03:44:30.491Z,25.02
2022-09-06T03:47:05.576Z,24.73
2022-09-06T03:49:37.898Z,24.82
2022-09-06T03:52:08.530Z,24.93
2022-09-06T03:54:37.334Z,24.81
2022-09-06T03:57:07.586Z,24.84
2022-09-06T03:59:38.391Z,24.75
2022-09-06T04:02:13.916Z,24.62
2022-09-06T04:04:45.435Z,24.56
2022-09-06T04:07:15.819Z,24.63
2022-09-06T04:09:45.974Z,24.68
2022-09-06T04:12:16.389Z,24.78
2022-09-06T04:14:47.011Z,24.72
2022-09-06T04:17:14.988Z,24.81
2022-09-06T04:19:42.738Z,24.62
2022-09-06T04:22:15.941Z,24.63
2022-09-06T04:24:51.813Z,24.68
2022-09-06T04:27:22.204Z,24.62
2022-09-06T04:29:56.796Z,24.59
2022-09-06T04:32:26.544Z,24.55
2022-09-06T04:34:57.524Z,24.54
2022-09-06T04:37:27.485Z,24.22
2022-09-06T04:40:01.181Z,24.39
2022-09-06T04:42:34.443Z,24.41
2022-09-06T04:45:02.303Z,24.50
2022-09-06T04:47:34.013Z,24.65
2022-09-06T04:50:02.428Z,24.57
2022-09-06T04:52:30.801Z,24.47
2022-09-06T04:55:04.337Z,24.49
2022-09-06T04:57:40.892Z,24.58
2022-09-06T05:00:11.691Z,24.61
2022-09-06T05:02:45.573Z,24.43
2022-09-06T05:05:16.018Z,24.42
2022-09-06T05:07:46.591Z,24.43
2022-09-06T05:10:16.639Z,24.56
2022-09-06T05:12:51.945Z,24.48
2022-09-06T05:15:25.534Z,24.50
2022-09-06T05:18:04.097Z,24.39
2022-09-06T05:20:38.199Z,24.12
2022-09-06T05:23:05.843Z,24.00
2022-09-06T05:25:36.603Z,23.82
2022-09-06T05:28:06.730Z,23.90
2022-09-06T05:30:39.866Z,23.99
2022-09-06T05:33:10.069Z,24.22
2022-09-06T05:35:42.569Z,24.41
2022-09-06T05:38:17.770Z,24.33
2022-09-06T05:40:48.727Z,24.35
2022-09-06T05:43:21.049Z,24.47
2022-09-06T05:45:54.945Z,24.56
2022-09-06T05:48:25.514Z,24.56
2022-09-06T05:51:04.124Z,24.67
2022-09-06T05:53:38.526Z,24.69
2022-09-06T05:56:10.588Z,24.61
2022-09-06T05:58:40.867Z,24.63
2022-09-06T06:01:14.470Z,24.67
2022-09-06T06:03:44.367Z,24.63
2022-09-06T06:06:14.749Z,24.71
2022-09-06T06:08:48.605Z,24.65
2022-09-06T06:11:21.586Z,24.70
2022-09-06T06:13:58.987Z,24.52
2022-09-06T06:16:37.341Z,24.64
2022-09-06T06:19:10.930Z,24.72
2022-09-06T06:21:44.778Z,24.87
2022-09-06T06:24:17.125Z,24.71
2022-09-06T06:26:50.201Z,24.41
2022-09-06T06:29:25.374Z,24.05
2022-09-06T06:31:58.726Z,24.16
2022-09-06T06:34:26.591Z,24.27
2022-09-06T06:36:58.796Z,24.43
2022-09-06T06:39:29.424Z,24.65
2022-09-06T06:41:57.182Z,24.46
2022-09-06T06:44:35.468Z,24.64
2022-09-06T06:47:10.799Z,24.90
2022-09-06T06:49:43.385Z,25.02
2022-09-06T06:52:12.028Z,24.82
2022-09-06T06:54:40.186Z,24.75
2022-09-06T06:57:12.844Z,24.76
2022-09-06T06:59:43.346Z,24.79
2022-09-06T07:02:19.657Z,25.06
2022-09-06T07:04:49.929Z,25.16
2022-09-06T07:13:00.900Z,25.33
2022-09-06T07:15:36.087Z,25.50
2022-09-06T07:18:06.914Z,25.45
2022-09-06T07:26:24.983Z,25.20
2022-09-06T07:28:57.768Z,25.44
2022-09-06T07:34:25.539Z,25.34
2022-09-06T07:36:54.989Z,25.50
2022-09-06T07:39:25.761Z,25.57
2022-09-06T07:41:59.837Z,25.57
2022-09-06T07:44:32.826Z,25.54
2022-09-06T07:53:15.062Z,25.69
2022-09-06T07:55:54.006Z,26.16
2022-09-06T07:58:24.628Z,26.44
2022-09-06T08:00:58.141Z,26.16
2022-09-06T08:03:30.751Z,26.16
2022-09-06T08:06:10.512Z,26.25
2022-09-06T08:11:35.196Z,26.25
2022-09-06T08:14:03.982Z,26.38
2022-09-06T08:16:39.484Z,26.51
2022-09-06T08:19:12.627Z,27.24
2022-09-06T08:21:43.007Z,26.45
2022-09-06T08:24:11.448Z,26.44
2022-09-06T08:26:46.728Z,26.89
2022-09-06T08:29:16.873Z,27.05
2022-09-06T08:31:44.853Z,26.77
2022-09-06T08:34:16.120Z,26.87
2022-09-06T08:36:49.170Z,27.10
2022-09-06T08:39:22.669Z,27.26
2022-09-06T08:42:11.278Z,27.22
2022-09-06T08:44:56.393Z,27.25
2022-09-06T08:47:25.250Z,27.42
2022-09-06T08:49:58.864Z,27.52
2022-09-06T08:52:34.933Z,27.48
2022-09-06T08:55:08.686Z,27.24
2022-09-06T08:57:43.491Z,27.44
2022-09-06T09:00:16.281Z,27.47
2022-09-06T09:02:52.011Z,27.65
2022-09-06T09:05:25.863Z,27.26
2022-09-06T09:08:05.971Z,27.57
2022-09-06T09:10:57.608Z,27.82
2022-09-06T09:13:31.484Z,27.96
2022-09-06T09:16:04.976Z,27.79
2022-09-06T09:18:42.586Z,27.64
2022-09-06T09:21:17.085Z,27.55
2022-09-06T09:23:49.718Z,27.69
2022-09-06T09:26:22.721Z,27.68
2022-09-06T09:29:12.789Z,27.79
2022-09-06T09:31:53.431Z,27.61
2022-09-06T09:34:29.086Z,27.58
2022-09-06T09:40:10.970Z,27.96
2022-09-06T09:42:41.796Z,28.06
2022-09-06T09:45:41.135Z,27.88
2022-09-06T09:48:27.194Z,28.54
2022-09-06T09:50:57.475Z,28.85
2022-09-06T09:53:26.795Z,29.02
2022-09-06T09:55:58.445Z,28.78
2022-09-06T09:58:35.532Z,28.74
2022-09-06T10:01:29.664Z,29.22
2022-09-06T10:07:11.170Z,29.46
2022-09-06T10:09:41.619Z,29.62
2022-09-06T10:12:11.904Z,29.55
2022-09-06T10:14:53.937Z,29.32
2022-09-06T10:17:31.923Z,29.13
2022-09-06T10:20:08.369Z,29.26
2022-09-06T10:22:46.775Z,29.51
2022-09-06T10:25:31.753Z,29.76
2022-09-06T10:28:18.624Z,29.95
2022-09-06T10:31:06.051Z,30.28
2022-09-06T10:33:45.977Z,30.01
2022-09-06T10:36:21.364Z,29.18
2022-09-06T10:38:54.502Z,29.50
2022-09-06T10:41:40.990Z,29.81
2022-09-06T10:44:14.516Z,29.80
2022-09-06T10:46:46.180Z,30.44
2022-09-06T10:49:21.736Z,31.06
2022-09-06T10:51:52.473Z,31.01
2022-09-06T10:54:24.111Z,31.00
2022-09-06T10:56:56.289Z,30.72
2022-09-06T10:59:42.509Z,30.76
2022-09-06T11:02:19.502Z,31.06
2022-09-06T11:07:41.746Z,31.06
2022-09-06T11:10:19.793Z,31.63
2022-09-06T11:12:59.624Z,31.58
2022-09-06T11:15:30.684Z,31.78
2022-09-06T11:18:03.196Z,32.14
2022-09-06T11:20:38.793Z,32.46
2022-09-06T11:23:25.243Z,33.22
2022-09-06T11:26:11.755Z,33.93
2022-09-06T11:28:45.603Z,34.51
2022-09-06T11:34:10.413Z,34.35
2022-09-06T11:36:39.401Z,35.40
2022-09-06T11:39:12.960Z,36.43
2022-09-06T11:41:44.989Z,37.87
2022-09-06T11:44:21.439Z,38.01
2022-09-06T11:46:51.501Z,38.94
2022-09-06T11:49:31.989Z,38.81
2022-09-06T11:52:01.955Z,38.93
2022-09-06T11:54:36.511Z,39.29
2022-09-06T11:57:12.677Z,39.44
2022-09-06T11:59:48.602Z,41.22
2022-09-06T12:02:33.387Z,39.59
2022-09-06T12:05:03.513Z,39.59
2022-09-06T12:07:40.415Z,40.68
2022-09-06T12:10:26.758Z,40.20
2022-09-06T12:12:57.906Z,40.35
2022-09-06T12:15:28.991Z,40.48
2022-09-06T12:17:57.369Z,40.26
2022-09-06T12:20:43.620Z,39.95
2022-09-06T12:23:40.753Z,40.96
2022-09-06T12:26:10.876Z,41.90
2022-09-06T12:28:46.828Z,40.58
2022-09-06T12:31:25.312Z,41.18
2022-09-06T12:33:55.481Z,40.45
2022-09-06T12:36:30.413Z,40.69
2022-09-06T12:39:07.946Z,40.85
2022-09-06T12:41:43.284Z,40.16
2022-09-06T12:44:18.363Z,40.50
2022-09-06T12:46:49.217Z,40.65
2022-09-06T12:49:21.258Z,40.79
2022-09-06T12:51:52.050Z,38.61
2022-09-06T12:54:22.021Z,38.05
2022-09-06T12:57:07.888Z,40.36
2022-09-06T12:59:35.677Z,40.43
2022-09-06T13:02:11.891Z,39.24
2022-09-06T13:04:41.698Z,40.38
2022-09-06T13:07:12.993Z,40.37
2022-09-06T13:09:43.357Z,40.48
2022-09-06T13:12:17.886Z,40.93
2022-09-06T13:14:50.589Z,40.85
2022-09-06T13:17:30.049Z,41.14
2022-09-06T13:20:09.416Z,41.01
2022-09-06T13:22:50.256Z,40.75
2022-09-06T13:25:31.660Z,40.20
2022-09-06T13:28:03.009Z,39.42
2022-09-06T13:30:32.871Z,39.47
2022-09-06T13:33:07.060Z,38.42
2022-09-06T13:35:39.748Z,38.62
2022-09-06T13:38:22.617Z,39.07
2022-09-06T13:41:11.529Z,38.53
2022-09-06T13:43:50.738Z,38.47
2022-09-06T13:46:18.547Z,36.10
2022-09-06T13:48:54.647Z,34.79
2022-09-06T13:51:26.966Z,34.07
2022-09-06T13:54:09.535Z,34.03
2022-09-06T13:56:39.510Z,33.17
2022-09-06T13:59:13.397Z,32.95
2022-09-06T14:01:44.875Z,32.76
2022-09-06T14:07:16.790Z,32.59
2022-09-06T14:09:52.456Z,32.33
2022-09-06T14:12:27.390Z,32.11
2022-09-06T14:14:59.850Z,32.40
2022-09-06T14:17:30.339Z,32.35
2022-09-06T14:20:01.123Z,32.43
2022-09-06T14:22:33.533Z,32.25
2022-09-06T14:25:03.648Z,31.74
2022-09-06T14:28:01.089Z,31.64
2022-09-06T14:30:38.455Z,31.50
2022-09-06T14:33:12.015Z,31.38
2022-09-06T14:35:44.613Z,31.42
2022-09-06T14:38:13.334Z,30.92
2022-09-06T14:40:44.207Z,30.60
2022-09-06T14:43:12.078Z,30.82
2022-09-06T14:45:45.274Z,30.85
2022-09-06T14:48:18.341Z,30.96
2022-09-06T14:50:48.390Z,30.91
2022-09-06T14:53:39.347Z,31.01
2022-09-06T14:56:16.788Z,30.82
2022-09-06T14:58:46.792Z,30.87
2022-09-06T15:01:24.785Z,30.96
2022-09-06T15:03:55.981Z,31.17
2022-09-06T15:06:34.814Z,30.86
2022-09-06T15:09:08.249Z,30.75
2022-09-06T15:11:37.591Z,30.63
2022-09-06T15:14:08.513Z,30.71
2022-09-06T15:16:38.745Z,30.69
2022-09-06T15:19:08.695Z,30.72
2022-09-06T15:21:38.704Z,30.78
2022-09-06T15:24:12.355Z,30.53
2022-09-06T15:26:43.381Z,30.56
2022-09-06T15:29:16.758Z,30.53
2022-09-06T15:31:51.226Z,30.73
2022-09-06T15:34:24.917Z,30.67
2022-09-06T15:36:56.502Z,30.55
2022-09-06T15:39:31.324Z,30.52
2022-09-06T15:42:01.711Z,30.56
2022-09-06T15:44:34.792Z,30.45
2022-09-06T15:47:03.644Z,30.42
2022-09-06T15:49:36.713Z,30.36
2022-09-06T15:52:09.599Z,30.37
2022-09-06T15:54:56.284Z,30.36
2022-09-06T15:57:24.586Z,30.33
2022-09-06T15:59:58.300Z,30.32
2022-09-06T16:02:30.963Z,30.21
2022-09-06T16:04:58.601Z,30.29
2022-09-06T16:07:31.960Z,30.22
2022-09-06T16:10:02.022Z,30.24
2022-09-06T16:12:29.888Z,30.26
2022-09-06T16:14:59.903Z,30.29
2022-09-06T16:17:33.838Z,30.29
2022-09-06T16:20:07.634Z,30.29
2022-09-06T16:22:41.167Z,30.24
2022-09-06T16:25:12.277Z,30.06
2022-09-06T16:27:42.463Z,30.03
2022-09-06T16:30:13.528Z,30.11
2022-09-06T16:32:44.591Z,30.03
2022-09-06T16:35:14.810Z,30.05
2022-09-06T16:37:46.422Z,29.99
2022-09-06T16:40:17.800Z,29.97
2022-09-06T16:42:47.785Z,30.01
2022-09-06T16:45:18.410Z,30.00
2022-09-06T16:47:48.637Z,30.06
2022-09-06T16:50:22.969Z,29.97
2022-09-06T16:52:55.700Z,29.88
2022-09-06T16:55:29.391Z,29.78
2022-09-06T16:58:00.404Z,29.86
2022-09-06T17:00:30.205Z,29.83
2022-09-06T17:02:58.721Z,29.76
2022-09-06T17:05:26.585Z,29.74
2022-09-06T17:08:02.121Z,29.56
2022-09-06T17:10:32.662Z,29.51
2022-09-06T17:13:03.843Z,29.51
2022-09-06T17:15:55.203Z,29.48
2022-09-06T17:18:29.751Z,29.53
2022-09-06T17:21:03.974Z,29.52
2022-09-06T17:23:35.088Z,29.50
2022-09-06T17:26:08.507Z,29.42
2022-09-06T17:28:41.163Z,29.28
2022-09-06T17:31:13.451Z,29.29
2022-09-06T17:33:48.764Z,29.25
2022-09-06T17:36:23.224Z,29.07
2022-09-06T17:38:55.678Z,29.10
2022-09-06T17:41:37.115Z,29.04
2022-09-06T17:44:11.213Z,29.12
2022-09-06T17:46:52.256Z,29.15
2022-09-06T17:49:35.816Z,29.16
2022-09-06T17:52:08.475Z,29.15
2022-09-06T17:54:37.132Z,29.14
2022-09-06T17:57:07.159Z,29.10
2022-09-06T17:59:39.747Z,29.01
2022-09-06T18:02:09.669Z,28.97
2022-09-06T18:04:38.289Z,28.98
2022-09-06T18:07:08.797Z,29.00
2022-09-06T18:09:42.575Z,29.00
2022-09-06T18:12:14.986Z,29.01
2022-09-06T18:14:45.408Z,28.99
2022-09-06T18:17:56.787Z,28.97
2022-09-06T18:20:29.421Z,28.91
2022-09-06T18:23:07.142Z,28.92
2022-09-06T18:25:38.603Z,28.90
2022-09-06T18:28:08.618Z,28.90
2022-09-06T18:30:36.920Z,28.92
2022-09-06T18:33:07.295Z,28.89
2022-09-06T18:35:43.329Z,28.93
2022-09-06T18:38:21.316Z,28.90
2022-09-06T18:40:53.480Z,28.44
2022-09-06T18:43:29.717Z,27.98
2022-09-06T18:46:01.733Z,28.08
2022-09-06T18:48:31.455Z,28.19
2022-09-06T18:51:11.507Z,28.34
2022-09-06T18:53:46.678Z,28.44
2022-09-06T18:56:19.669Z,28.49
2022-09-06T18:58:49.731Z,28.58
2022-09-06T19:01:22.282Z,28.49
2022-09-06T19:03:53.147Z,28.53
2022-09-06T19:06:25.486Z,28.57
2022-09-06T19:08:56.662Z,28.63
2022-09-06T19:11:35.310Z,28.56
2022-09-06T19:14:10.115Z,28.52
2022-09-06T19:16:42.557Z,28.56
2022-09-06T19:19:15.623Z,28.30
2022-09-06T19:21:47.799Z,28.19
2022-09-06T19:24:25.461Z,28.25
2022-09-06T19:26:55.824Z,28.34
2022-09-06T19:29:30.278Z,28.36
2022-09-06T19:32:00.988Z,28.20
2022-09-06T19:34:34.558Z,28.08
2022-09-06T19:37:02.192Z,28.23
2022-09-06T19:39:36.762Z,27.80
2022-09-06T19:42:10.393Z,27.32
2022-09-06T19:44:44.636Z,27.00
2022-09-06T19:47:15.173Z,26.79
2022-09-06T19:49:45.672Z,27.09
2022-09-06T19:52:16.077Z,26.92
2022-09-06T19:54:48.970Z,27.01
2022-09-06T19:57:22.819Z,26.77
2022-09-06T19:59:54.882Z,26.95
2022-09-06T20:02:25.333Z,27.02
2022-09-06T20:04:52.778Z,26.97
2022-09-06T20:07:28.520Z,26.82
2022-09-06T20:10:02.476Z,26.78
2022-09-06T20:12:36.448Z,26.81
2022-09-06T20:15:09.359Z,26.66
2022-09-06T20:17:37.976Z,26.66
2022-09-06T20:20:06.162Z,26.52
2022-09-06T20:22:39.568Z,26.79
2022-09-06T20:25:12.029Z,26.76
2022-09-06T20:27:44.424Z,26.70
2022-09-06T20:30:15.083Z,26.76
2022-09-06T20:32:45.873Z,26.63
2022-09-06T20:35:18.169Z,26.58
2022-09-06T20:37:51.969Z,26.50
2022-09-06T20:40:19.956Z,26.57
2022-09-06T20:42:57.595Z,26.37
2022-09-06T20:45:28.736Z,26.41
2022-09-06T20:48:01.807Z,26.50
2022-09-06T20:50:32.371Z,26.55
2022-09-06T20:53:02.489Z,26.51
2022-09-06T20:55:35.557Z,26.58
2022-09-06T20:58:09.970Z,26.57
2022-09-06T21:00:42.933Z,26.62
2022-09-06T21:03:18.465Z,26.48
2022-09-06T21:05:48.740Z,26.55
2022-09-06T21:08:24.306Z,26.63
2022-09-06T21:11:03.734Z,26.66
2022-09-06T21:13:34.732Z,26.58
2022-09-06T21:16:08.290Z,26.42
2022-09-06T21:18:41.375Z,26.54
2022-09-06T21:21:16.281Z,26.24
2022-09-06T21:23:46.441Z,26.41
2022-09-06T21:26:19.101Z,26.41
2022-09-06T21:28:49.912Z,26.63
2022-09-06T21:31:24.106Z,26.94
2022-09-06T21:33:57.992Z,26.78
2022-09-06T21:36:29.384Z,26.81
2022-09-06T21:39:00.032Z,26.62
2022-09-06T21:41:32.019Z,26.61
2022-09-06T21:44:06.126Z,26.59
2022-09-06T21:46:39.286Z,26.76
2022-09-06T21:49:08.557Z,26.62
2022-09-06T21:51:42.121Z,26.66
2022-09-06T21:54:10.089Z,26.93
2022-09-06T21:56:40.418Z,26.79
2022-09-06T21:59:12.475Z,26.46
2022-09-06T22:01:45.402Z,26.37
2022-09-06T22:04:13.939Z,26.80
2022-09-06T22:06:49.765Z,26.76
2022-09-06T22:09:22.163Z,26.58
2022-09-06T22:11:57.890Z,26.67
2022-09-06T22:14:30.205Z,26.67
2022-09-06T22:16:57.932Z,26.82
2022-09-06T22:19:28.275Z,26.90
2022-09-06T22:21:59.164Z,26.37
2022-09-06T22:24:32.099Z,26.28
2022-09-06T22:27:02.815Z,26.55
2022-09-06T22:29:30.745Z,26.63
2022-09-06T22:32:00.120Z,26.55
2022-09-06T22:34:32.907Z,26.77
2022-09-06T22:37:06.958Z,26.94
2022-09-06T22:39:40.723Z,26.90
2022-09-06T22:42:11.352Z,26.98
2022-09-06T22:44:42.375Z,26.92
2022-09-06T22:47:12.923Z,27.06
2022-09-06T22:49:47.707Z,26.81
2022-09-06T22:52:20.975Z,26.99
2022-09-06T22:54:48.833Z,26.95
2022-09-06T22:57:19.087Z,26.86
2022-09-06T22:59:49.448Z,26.89
2022-09-06T23:02:21.992Z,26.94
2022-09-06T23:04:50.961Z,26.89
2022-09-06T23:07:21.117Z,26.92
2022-09-06T23:09:53.850Z,26.89
2022-09-06T23:12:23.991Z,26.26
2022-09-06T23:14:59.034Z,26.36
2022-09-06T23:17:30.301Z,26.46
2022-09-06T23:20:00.036Z,26.75
2022-09-06T23:22:31.337Z,26.63
2022-09-06T23:24:59.273Z,26.67
2022-09-06T23:27:29.481Z,26.81
2022-09-06T23:30:03.127Z,26.76
2022-09-06T23:32:34.957Z,26.50
2022-09-06T23:35:17.367Z,26.51
2022-09-06T23:37:45.123Z,26.44
2022-09-06T23:40:17.719Z,26.54
2022-09-06T23:42:50.630Z,26.60
2022-09-06T23:45:23.855Z,26.60
2022-09-06T23:47:53.114Z,26.45
2022-09-06T23:50:23.060Z,26.66
2022-09-06T23:52:52.966Z,26.65
2022-09-06T23:55:23.302Z,26.79
2022-09-06T23:57:50.802Z,26.83
